sensor_id;sensor_type;location;lat;lon;timestamp;P1;durP1;ratioP1;P2;durP2;ratioP2
45388;SDS011;31127;52.078;4.370;2023-09-30T00:01:39;13.23;;;5.30;;
45388;SDS011;31127;52.078;4.370;2023-09-30T00:06:34;12.63;;;5.43;;
45388;SDS011;31127;52.078;4.370;2023-09-30T00:11:30;12.23;;;4.85;;
45388;SDS011;31127;52.078;4.370;2023-09-30T00:16:45;11.98;;;5.20;;
45388;SDS011;31127;52.078;4.370;2023-09-30T00:21:41;11.88;;;5.45;;
45388;SDS011;31127;52.078;4.370;2023-09-30T00:26:36;14.02;;;5.18;;
45388;SDS011;31127;52.078;4.370;2023-09-30T00:31:32;14.88;;;5.10;;
45388;SDS011;31127;52.078;4.370;2023-09-30T00:36:27;12.38;;;5.05;;
45388;SDS011;31127;52.078;4.370;2023-09-30T00:41:42;11.43;;;4.38;;
45388;SDS011;31127;52.078;4.370;2023-09-30T00:46:38;11.38;;;4.63;;
45388;SDS011;31127;52.078;4.370;2023-09-30T00:51:35;14.10;;;5.20;;
45388;SDS011;31127;52.078;4.370;2023-09-30T00:56:31;12.10;;;5.18;;
45388;SDS011;31127;52.078;4.370;2023-09-30T01:01:27;11.25;;;5.22;;
45388;SDS011;31127;52.078;4.370;2023-09-30T01:06:23;10.68;;;5.32;;
45388;SDS011;31127;52.078;4.370;2023-09-30T01:11:18;10.07;;;4.83;;
45388;SDS011;31127;52.078;4.370;2023-09-30T01:16:34;15.43;;;4.97;;
45388;SDS011;31127;52.078;4.370;2023-09-30T01:21:38;14.02;;;4.97;;
45388;SDS011;31127;52.078;4.370;2023-09-30T01:26:33;12.77;;;4.63;;
45388;SDS011;31127;52.078;4.370;2023-09-30T01:31:29;12.98;;;5.07;;
45388;SDS011;31127;52.078;4.370;2023-09-30T01:36:25;14.02;;;4.68;;
45388;SDS011;31127;52.078;4.370;2023-09-30T01:41:20;11.60;;;5.05;;
45388;SDS011;31127;52.078;4.370;2023-09-30T01:46:36;15.98;;;5.57;;
45388;SDS011;31127;52.078;4.370;2023-09-30T01:51:31;15.25;;;5.15;;
45388;SDS011;31127;52.078;4.370;2023-09-30T01:56:47;10.60;;;4.43;;
45388;SDS011;31127;52.078;4.370;2023-09-30T02:01:46;12.18;;;4.82;;
45388;SDS011;31127;52.078;4.370;2023-09-30T02:06:45;15.57;;;5.30;;
45388;SDS011;31127;52.078;4.370;2023-09-30T02:11:44;11.82;;;5.35;;
45388;SDS011;31127;52.078;4.370;2023-09-30T02:16:39;11.85;;;4.93;;
45388;SDS011;31127;52.078;4.370;2023-09-30T02:21:35;13.07;;;5.40;;
45388;SDS011;31127;52.078;4.370;2023-09-30T02:26:30;12.05;;;4.90;;
45388;SDS011;31127;52.078;4.370;2023-09-30T02:31:26;13.85;;;5.47;;
45388;SDS011;31127;52.078;4.370;2023-09-30T02:36:21;15.07;;;6.25;;
45388;SDS011;31127;52.078;4.370;2023-09-30T02:41:18;11.13;;;5.10;;
45388;SDS011;31127;52.078;4.370;2023-09-30T02:46:14;12.88;;;6.50;;
45388;SDS011;31127;52.078;4.370;2023-09-30T02:51:10;11.50;;;6.40;;
45388;SDS011;31127;52.078;4.370;2023-09-30T02:56:06;14.30;;;5.55;;
45388;SDS011;31127;52.078;4.370;2023-09-30T03:01:01;24.25;;;8.23;;
45388;SDS011;31127;52.078;4.370;2023-09-30T03:06:17;12.35;;;6.78;;
45388;SDS011;31127;52.078;4.370;2023-09-30T03:11:14;18.40;;;9.30;;
45388;SDS011;31127;52.078;4.370;2023-09-30T03:16:09;17.67;;;8.50;;
45388;SDS011;31127;52.078;4.370;2023-09-30T03:21:13;16.63;;;8.23;;
45388;SDS011;31127;52.078;4.370;2023-09-30T03:26:09;23.35;;;9.77;;
45388;SDS011;31127;52.078;4.370;2023-09-30T03:31:05;19.17;;;10.50;;
45388;SDS011;31127;52.078;4.370;2023-09-30T03:36:21;22.30;;;10.35;;
45388;SDS011;31127;52.078;4.370;2023-09-30T03:41:19;20.27;;;12.38;;
45388;SDS011;31127;52.078;4.370;2023-09-30T03:46:15;27.75;;;11.68;;
45388;SDS011;31127;52.078;4.370;2023-09-30T03:51:13;16.67;;;9.90;;
45388;SDS011;31127;52.078;4.370;2023-09-30T03:56:09;23.30;;;12.60;;
45388;SDS011;31127;52.078;4.370;2023-09-30T04:01:28;20.80;;;12.25;;
45388;SDS011;31127;52.078;4.370;2023-09-30T04:06:43;28.67;;;14.43;;
45388;SDS011;31127;52.078;4.370;2023-09-30T04:11:39;34.75;;;19.95;;
45388;SDS011;31127;52.078;4.370;2023-09-30T04:16:35;27.13;;;14.70;;
45388;SDS011;31127;52.078;4.370;2023-09-30T04:21:32;30.85;;;14.15;;
45388;SDS011;31127;52.078;4.370;2023-09-30T04:26:29;27.58;;;14.85;;
45388;SDS011;31127;52.078;4.370;2023-09-30T04:31:25;30.38;;;13.25;;
45388;SDS011;31127;52.078;4.370;2023-09-30T04:36:40;25.42;;;13.82;;
45388;SDS011;31127;52.078;4.370;2023-09-30T04:41:36;25.52;;;12.77;;
45388;SDS011;31127;52.078;4.370;2023-09-30T04:46:32;27.38;;;14.43;;
45388;SDS011;31127;52.078;4.370;2023-09-30T04:51:29;24.27;;;12.40;;
45388;SDS011;31127;52.078;4.370;2023-09-30T04:56:26;31.05;;;16.08;;
45388;SDS011;31127;52.078;4.370;2023-09-30T05:01:21;24.50;;;13.05;;
45388;SDS011;31127;52.078;4.370;2023-09-30T05:06:16;22.47;;;12.47;;
45388;SDS011;31127;52.078;4.370;2023-09-30T05:11:12;26.95;;;14.52;;
45388;SDS011;31127;52.078;4.370;2023-09-30T05:16:07;32.45;;;15.75;;
45388;SDS011;31127;52.078;4.370;2023-09-30T05:21:03;35.72;;;17.63;;
45388;SDS011;31127;52.078;4.370;2023-09-30T05:25:59;37.13;;;19.17;;
45388;SDS011;31127;52.078;4.370;2023-09-30T05:30:55;31.83;;;18.70;;
45388;SDS011;31127;52.078;4.370;2023-09-30T05:35:51;27.55;;;17.92;;
45388;SDS011;31127;52.078;4.370;2023-09-30T05:40:47;36.03;;;20.15;;
45388;SDS011;31127;52.078;4.370;2023-09-30T05:45:43;47.35;;;23.27;;
45388;SDS011;31127;52.078;4.370;2023-09-30T05:50:44;39.35;;;21.73;;
45388;SDS011;31127;52.078;4.370;2023-09-30T05:55:40;38.72;;;23.58;;
45388;SDS011;31127;52.078;4.370;2023-09-30T06:00:39;36.20;;;22.35;;
45388;SDS011;31127;52.078;4.370;2023-09-30T06:05:39;41.97;;;21.10;;
45388;SDS011;31127;52.078;4.370;2023-09-30T06:10:35;37.92;;;22.02;;
45388;SDS011;31127;52.078;4.370;2023-09-30T06:15:33;33.40;;;19.27;;
45388;SDS011;31127;52.078;4.370;2023-09-30T06:20:28;37.47;;;21.85;;
45388;SDS011;31127;52.078;4.370;2023-09-30T06:25:26;33.05;;;18.70;;
45388;SDS011;31127;52.078;4.370;2023-09-30T06:30:22;36.72;;;21.52;;
45388;SDS011;31127;52.078;4.370;2023-09-30T06:35:24;40.83;;;22.67;;
45388;SDS011;31127;52.078;4.370;2023-09-30T06:40:20;37.42;;;20.20;;
45388;SDS011;31127;52.078;4.370;2023-09-30T06:45:35;33.85;;;19.55;;
45388;SDS011;31127;52.078;4.370;2023-09-30T06:50:36;42.65;;;22.77;;
45388;SDS011;31127;52.078;4.370;2023-09-30T06:55:32;33.17;;;18.55;;
45388;SDS011;31127;52.078;4.370;2023-09-30T07:00:27;32.45;;;19.13;;
45388;SDS011;31127;52.078;4.370;2023-09-30T07:05:23;32.65;;;19.35;;
45388;SDS011;31127;52.078;4.370;2023-09-30T07:10:19;33.90;;;19.20;;
45388;SDS011;31127;52.078;4.370;2023-09-30T07:15:15;28.88;;;16.17;;
45388;SDS011;31127;52.078;4.370;2023-09-30T07:20:11;28.65;;;16.38;;
45388;SDS011;31127;52.078;4.370;2023-09-30T07:25:07;32.05;;;17.92;;
45388;SDS011;31127;52.078;4.370;2023-09-30T07:30:02;28.45;;;15.88;;
45388;SDS011;31127;52.078;4.370;2023-09-30T07:35:01;31.23;;;16.70;;
45388;SDS011;31127;52.078;4.370;2023-09-30T07:39:56;31.25;;;15.05;;
45388;SDS011;31127;52.078;4.370;2023-09-30T07:44:52;25.90;;;14.77;;
45388;SDS011;31127;52.078;4.370;2023-09-30T07:49:49;22.40;;;13.57;;
45388;SDS011;31127;52.078;4.370;2023-09-30T07:55:05;22.50;;;12.80;;
45388;SDS011;31127;52.078;4.370;2023-09-30T08:00:01;23.52;;;12.38;;
45388;SDS011;31127;52.078;4.370;2023-09-30T08:05:05;19.02;;;10.73;;
45388;SDS011;31127;52.078;4.370;2023-09-30T08:10:02;20.52;;;11.75;;
45388;SDS011;31127;52.078;4.370;2023-09-30T08:15:00;24.40;;;11.70;;
45388;SDS011;31127;52.078;4.370;2023-09-30T08:19:58;18.80;;;9.65;;
45388;SDS011;31127;52.078;4.370;2023-09-30T08:24:54;23.88;;;10.95;;
45388;SDS011;31127;52.078;4.370;2023-09-30T08:29:49;17.40;;;9.52;;
45388;SDS011;31127;52.078;4.370;2023-09-30T08:34:45;21.90;;;8.45;;
45388;SDS011;31127;52.078;4.370;2023-09-30T08:39:40;14.90;;;8.15;;
45388;SDS011;31127;52.078;4.370;2023-09-30T08:44:36;15.38;;;6.88;;
45388;SDS011;31127;52.078;4.370;2023-09-30T08:49:37;17.33;;;7.60;;
45388;SDS011;31127;52.078;4.370;2023-09-30T08:54:33;13.75;;;7.50;;
45388;SDS011;31127;52.078;4.370;2023-09-30T08:59:29;19.10;;;7.57;;
45388;SDS011;31127;52.078;4.370;2023-09-30T09:04:26;14.85;;;7.07;;
45388;SDS011;31127;52.078;4.370;2023-09-30T09:09:22;15.57;;;7.72;;
45388;SDS011;31127;52.078;4.370;2023-09-30T09:14:17;15.63;;;7.05;;
45388;SDS011;31127;52.078;4.370;2023-09-30T09:19:14;15.70;;;5.70;;
45388;SDS011;31127;52.078;4.370;2023-09-30T09:24:13;10.65;;;4.90;;
45388;SDS011;31127;52.078;4.370;2023-09-30T09:29:24;11.00;;;4.50;;
45388;SDS011;31127;52.078;4.370;2023-09-30T09:34:20;11.80;;;4.18;;
45388;SDS011;31127;52.078;4.370;2023-09-30T09:39:16;10.70;;;3.83;;
45388;SDS011;31127;52.078;4.370;2023-09-30T09:44:24;10.73;;;3.78;;
45388;SDS011;31127;52.078;4.370;2023-09-30T09:49:22;11.88;;;2.92;;
45388;SDS011;31127;52.078;4.370;2023-09-30T09:54:17;5.60;;;2.93;;
45388;SDS011;31127;52.078;4.370;2023-09-30T09:59:14;8.82;;;3.08;;
45388;SDS011;31127;52.078;4.370;2023-09-30T10:04:15;9.07;;;3.20;;
45388;SDS011;31127;52.078;4.370;2023-09-30T10:09:12;8.00;;;3.20;;
45388;SDS011;31127;52.078;4.370;2023-09-30T10:14:09;7.55;;;3.50;;
45388;SDS011;31127;52.078;4.370;2023-09-30T10:19:25;8.60;;;3.95;;
45388;SDS011;31127;52.078;4.370;2023-09-30T10:29:41;10.55;;;2.97;;
45388;SDS011;31127;52.078;4.370;2023-09-30T10:34:46;9.63;;;3.33;;
45388;SDS011;31127;52.078;4.370;2023-09-30T10:39:58;7.25;;;2.90;;
45388;SDS011;31127;52.078;4.370;2023-09-30T10:44:53;9.23;;;3.63;;
45388;SDS011;31127;52.078;4.370;2023-09-30T10:50:49;12.43;;;4.28;;
45388;SDS011;31127;52.078;4.370;2023-09-30T10:55:25;9.77;;;3.22;;
45388;SDS011;31127;52.078;4.370;2023-09-30T11:00:21;12.77;;;3.50;;
45388;SDS011;31127;52.078;4.370;2023-09-30T11:05:17;10.27;;;3.40;;
45388;SDS011;31127;52.078;4.370;2023-09-30T11:10:15;9.57;;;3.25;;
45388;SDS011;31127;52.078;4.370;2023-09-30T11:15:11;7.32;;;2.80;;
45388;SDS011;31127;52.078;4.370;2023-09-30T11:20:06;7.55;;;3.75;;
45388;SDS011;31127;52.078;4.370;2023-09-30T11:25:02;10.70;;;3.75;;
45388;SDS011;31127;52.078;4.370;2023-09-30T11:30:01;11.27;;;3.88;;
45388;SDS011;31127;52.078;4.370;2023-09-30T11:34:58;10.00;;;3.67;;
45388;SDS011;31127;52.078;4.370;2023-09-30T11:40:07;10.00;;;3.92;;
45388;SDS011;31127;52.078;4.370;2023-09-30T11:45:17;10.13;;;3.67;;
45388;SDS011;31127;52.078;4.370;2023-09-30T11:50:13;10.98;;;3.83;;
45388;SDS011;31127;52.078;4.370;2023-09-30T11:55:08;9.65;;;3.33;;
45388;SDS011;31127;52.078;4.370;2023-09-30T12:00:04;11.18;;;3.25;;
45388;SDS011;31127;52.078;4.370;2023-09-30T12:05:08;13.52;;;3.72;;
45388;SDS011;31127;52.078;4.370;2023-09-30T12:10:06;7.55;;;3.75;;
45388;SDS011;31127;52.078;4.370;2023-09-30T12:15:02;6.68;;;3.15;;
45388;SDS011;31127;52.078;4.370;2023-09-30T12:19:58;7.20;;;2.90;;
45388;SDS011;31127;52.078;4.370;2023-09-30T12:24:54;14.88;;;4.22;;
45388;SDS011;31127;52.078;4.370;2023-09-30T12:30:10;8.57;;;3.17;;
45388;SDS011;31127;52.078;4.370;2023-09-30T12:35:09;10.00;;;3.90;;
45388;SDS011;31127;52.078;4.370;2023-09-30T12:40:24;11.18;;;3.28;;
45388;SDS011;31127;52.078;4.370;2023-09-30T12:45:20;13.15;;;4.03;;
45388;SDS011;31127;52.078;4.370;2023-09-30T12:50:35;15.15;;;3.95;;
45388;SDS011;31127;52.078;4.370;2023-09-30T12:55:31;13.52;;;4.05;;
45388;SDS011;31127;52.078;4.370;2023-09-30T13:00:26;10.43;;;3.63;;
45388;SDS011;31127;52.078;4.370;2023-09-30T13:05:22;10.57;;;3.78;;
45388;SDS011;31127;52.078;4.370;2023-09-30T13:10:18;11.77;;;3.00;;
45388;SDS011;31127;52.078;4.370;2023-09-30T13:15:14;10.38;;;3.35;;
45388;SDS011;31127;52.078;4.370;2023-09-30T13:20:09;9.50;;;2.90;;
45388;SDS011;31127;52.078;4.370;2023-09-30T13:25:06;10.30;;;3.28;;
45388;SDS011;31127;52.078;4.370;2023-09-30T13:30:07;9.38;;;4.55;;
45388;SDS011;31127;52.078;4.370;2023-09-30T13:35:06;10.02;;;3.00;;
45388;SDS011;31127;52.078;4.370;2023-09-30T13:40:02;14.75;;;4.05;;
45388;SDS011;31127;52.078;4.370;2023-09-30T13:44:59;7.72;;;2.60;;
45388;SDS011;31127;52.078;4.370;2023-09-30T13:49:55;10.00;;;3.35;;
45388;SDS011;31127;52.078;4.370;2023-09-30T13:54:51;7.00;;;3.00;;
45388;SDS011;31127;52.078;4.370;2023-09-30T13:59:46;11.45;;;2.92;;
45388;SDS011;31127;52.078;4.370;2023-09-30T14:04:42;8.27;;;2.90;;
45388;SDS011;31127;52.078;4.370;2023-09-30T14:09:38;10.73;;;3.50;;
45388;SDS011;31127;52.078;4.370;2023-09-30T14:14:33;9.43;;;2.97;;
45388;SDS011;31127;52.078;4.370;2023-09-30T14:19:31;8.90;;;3.10;;
45388;SDS011;31127;52.078;4.370;2023-09-30T14:24:47;11.07;;;2.85;;
45388;SDS011;31127;52.078;4.370;2023-09-30T14:29:43;12.18;;;2.97;;
45388;SDS011;31127;52.078;4.370;2023-09-30T14:34:38;11.73;;;3.60;;
45388;SDS011;31127;52.078;4.370;2023-09-30T14:39:34;10.20;;;2.90;;
45388;SDS011;31127;52.078;4.370;2023-09-30T14:44:30;13.63;;;5.40;;
45388;SDS011;31127;52.078;4.370;2023-09-30T14:49:30;8.03;;;2.90;;
45388;SDS011;31127;52.078;4.370;2023-09-30T14:54:25;13.45;;;5.78;;
45388;SDS011;31127;52.078;4.370;2023-09-30T14:59:41;13.85;;;3.13;;
45388;SDS011;31127;52.078;4.370;2023-09-30T15:04:56;11.50;;;2.95;;
45388;SDS011;31127;52.078;4.370;2023-09-30T15:09:53;14.43;;;3.03;;
45388;SDS011;31127;52.078;4.370;2023-09-30T15:15:08;9.20;;;2.88;;
45388;SDS011;31127;52.078;4.370;2023-09-30T15:20:24;10.77;;;3.40;;
45388;SDS011;31127;52.078;4.370;2023-09-30T15:25:42;11.23;;;3.13;;
45388;SDS011;31127;52.078;4.370;2023-09-30T15:30:39;14.00;;;3.30;;
45388;SDS011;31127;52.078;4.370;2023-09-30T15:35:34;11.07;;;2.67;;
45388;SDS011;31127;52.078;4.370;2023-09-30T15:46:07;11.50;;;2.85;;
45388;SDS011;31127;52.078;4.370;2023-09-30T15:51:03;10.30;;;2.67;;
45388;SDS011;31127;52.078;4.370;2023-09-30T15:55:58;9.52;;;2.78;;
45388;SDS011;31127;52.078;4.370;2023-09-30T16:00:54;11.07;;;3.88;;
45388;SDS011;31127;52.078;4.370;2023-09-30T16:05:49;12.15;;;4.07;;
45388;SDS011;31127;52.078;4.370;2023-09-30T16:10:45;10.23;;;2.70;;
45388;SDS011;31127;52.078;4.370;2023-09-30T16:15:41;10.57;;;2.85;;
45388;SDS011;31127;52.078;4.370;2023-09-30T16:20:37;17.25;;;4.15;;
45388;SDS011;31127;52.078;4.370;2023-09-30T16:25:33;11.52;;;3.10;;
45388;SDS011;31127;52.078;4.370;2023-09-30T16:30:30;13.10;;;3.00;;
45388;SDS011;31127;52.078;4.370;2023-09-30T16:35:25;17.40;;;5.85;;
45388;SDS011;31127;52.078;4.370;2023-09-30T16:40:21;14.50;;;3.85;;
45388;SDS011;31127;52.078;4.370;2023-09-30T16:45:16;13.35;;;4.53;;
45388;SDS011;31127;52.078;4.370;2023-09-30T16:50:12;16.30;;;4.07;;
45388;SDS011;31127;52.078;4.370;2023-09-30T16:55:07;12.18;;;3.58;;
45388;SDS011;31127;52.078;4.370;2023-09-30T17:00:03;13.38;;;4.35;;
45388;SDS011;31127;52.078;4.370;2023-09-30T17:04:59;8.93;;;3.10;;
45388;SDS011;31127;52.078;4.370;2023-09-30T17:09:58;12.10;;;3.55;;
45388;SDS011;31127;52.078;4.370;2023-09-30T17:14:54;10.77;;;3.30;;
45388;SDS011;31127;52.078;4.370;2023-09-30T17:19:49;9.98;;;3.10;;
45388;SDS011;31127;52.078;4.370;2023-09-30T17:24:45;12.32;;;3.55;;
45388;SDS011;31127;52.078;4.370;2023-09-30T17:29:41;12.48;;;4.50;;
45388;SDS011;31127;52.078;4.370;2023-09-30T17:34:36;13.30;;;4.75;;
45388;SDS011;31127;52.078;4.370;2023-09-30T17:39:34;34.55;;;19.77;;
45388;SDS011;31127;52.078;4.370;2023-09-30T17:44:30;16.43;;;4.73;;
45388;SDS011;31127;52.078;4.370;2023-09-30T17:49:26;13.75;;;4.18;;
45388;SDS011;31127;52.078;4.370;2023-09-30T17:54:21;17.83;;;4.75;;
45388;SDS011;31127;52.078;4.370;2023-09-30T17:59:37;14.57;;;4.90;;
45388;SDS011;31127;52.078;4.370;2023-09-30T18:04:33;12.35;;;4.47;;
45388;SDS011;31127;52.078;4.370;2023-09-30T18:09:28;11.38;;;3.95;;
45388;SDS011;31127;52.078;4.370;2023-09-30T18:14:23;12.00;;;4.40;;
45388;SDS011;31127;52.078;4.370;2023-09-30T18:19:19;9.80;;;4.57;;
45388;SDS011;31127;52.078;4.370;2023-09-30T18:24:16;14.27;;;3.78;;
45388;SDS011;31127;52.078;4.370;2023-09-30T18:29:11;16.13;;;4.25;;
45388;SDS011;31127;52.078;4.370;2023-09-30T18:34:07;19.83;;;10.25;;
45388;SDS011;31127;52.078;4.370;2023-09-30T18:39:03;11.27;;;4.72;;
45388;SDS011;31127;52.078;4.370;2023-09-30T18:44:18;13.27;;;5.25;;
45388;SDS011;31127;52.078;4.370;2023-09-30T18:49:14;15.25;;;5.88;;
45388;SDS011;31127;52.078;4.370;2023-09-30T18:54:09;13.73;;;4.18;;
45388;SDS011;31127;52.078;4.370;2023-09-30T18:59:06;13.70;;;4.93;;
45388;SDS011;31127;52.078;4.370;2023-09-30T19:04:03;14.32;;;4.90;;
45388;SDS011;31127;52.078;4.370;2023-09-30T19:08:58;12.30;;;4.47;;
45388;SDS011;31127;52.078;4.370;2023-09-30T19:13:54;15.18;;;4.30;;
45388;SDS011;31127;52.078;4.370;2023-09-30T19:18:50;17.77;;;5.25;;
45388;SDS011;31127;52.078;4.370;2023-09-30T19:23:46;10.15;;;4.15;;
45388;SDS011;31127;52.078;4.370;2023-09-30T19:28:42;14.60;;;5.45;;
45388;SDS011;31127;52.078;4.370;2023-09-30T19:33:57;8.48;;;4.38;;
45388;SDS011;31127;52.078;4.370;2023-09-30T19:38:53;12.77;;;4.10;;
45388;SDS011;31127;52.078;4.370;2023-09-30T19:43:49;15.10;;;4.70;;
45388;SDS011;31127;52.078;4.370;2023-09-30T19:48:44;15.93;;;4.72;;
45388;SDS011;31127;52.078;4.370;2023-09-30T19:53:40;11.85;;;4.93;;
45388;SDS011;31127;52.078;4.370;2023-09-30T19:58:38;16.52;;;4.97;;
45388;SDS011;31127;52.078;4.370;2023-09-30T20:03:55;13.93;;;5.90;;
45388;SDS011;31127;52.078;4.370;2023-09-30T20:08:51;19.05;;;5.80;;
45388;SDS011;31127;52.078;4.370;2023-09-30T20:13:47;15.60;;;5.45;;
45388;SDS011;31127;52.078;4.370;2023-09-30T20:18:43;12.98;;;5.22;;
45388;SDS011;31127;52.078;4.370;2023-09-30T20:23:58;15.18;;;5.55;;
45388;SDS011;31127;52.078;4.370;2023-09-30T20:28:59;13.90;;;5.40;;
45388;SDS011;31127;52.078;4.370;2023-09-30T20:33:55;15.48;;;5.88;;
45388;SDS011;31127;52.078;4.370;2023-09-30T20:38:50;14.73;;;4.50;;
45388;SDS011;31127;52.078;4.370;2023-09-30T20:43:46;12.43;;;4.15;;
45388;SDS011;31127;52.078;4.370;2023-09-30T20:48:43;13.02;;;4.40;;
45388;SDS011;31127;52.078;4.370;2023-09-30T20:53:40;32.10;;;15.10;;
45388;SDS011;31127;52.078;4.370;2023-09-30T20:58:56;19.98;;;7.32;;
45388;SDS011;31127;52.078;4.370;2023-09-30T21:04:11;13.48;;;4.85;;
45388;SDS011;31127;52.078;4.370;2023-09-30T21:09:07;14.20;;;5.03;;
45388;SDS011;31127;52.078;4.370;2023-09-30T21:14:23;19.42;;;5.97;;
45388;SDS011;31127;52.078;4.370;2023-09-30T21:19:19;14.77;;;5.40;;
45388;SDS011;31127;52.078;4.370;2023-09-30T21:24:15;12.63;;;5.13;;
45388;SDS011;31127;52.078;4.370;2023-09-30T21:29:11;15.30;;;5.50;;
45388;SDS011;31127;52.078;4.370;2023-09-30T21:34:06;18.58;;;5.57;;
45388;SDS011;31127;52.078;4.370;2023-09-30T21:39:03;18.73;;;5.45;;
45388;SDS011;31127;52.078;4.370;2023-09-30T21:44:22;15.95;;;5.45;;
45388;SDS011;31127;52.078;4.370;2023-09-30T21:49:37;13.90;;;5.63;;
45388;SDS011;31127;52.078;4.370;2023-09-30T21:54:32;15.10;;;5.10;;
45388;SDS011;31127;52.078;4.370;2023-09-30T21:59:28;13.60;;;5.82;;
45388;SDS011;31127;52.078;4.370;2023-09-30T22:04:23;10.82;;;5.15;;
45388;SDS011;31127;52.078;4.370;2023-09-30T22:09:19;18.98;;;6.32;;
45388;SDS011;31127;52.078;4.370;2023-09-30T22:14:15;17.35;;;5.60;;
45388;SDS011;31127;52.078;4.370;2023-09-30T22:19:30;14.13;;;5.80;;
45388;SDS011;31127;52.078;4.370;2023-09-30T22:24:26;12.32;;;5.63;;
45388;SDS011;31127;52.078;4.370;2023-09-30T22:29:22;17.33;;;4.95;;
45388;SDS011;31127;52.078;4.370;2023-09-30T22:34:18;15.32;;;5.68;;
45388;SDS011;31127;52.078;4.370;2023-09-30T22:39:13;10.23;;;5.05;;
45388;SDS011;31127;52.078;4.370;2023-09-30T22:44:12;12.60;;;5.35;;
45388;SDS011;31127;52.078;4.370;2023-09-30T22:49:08;17.20;;;5.22;;
45388;SDS011;31127;52.078;4.370;2023-09-30T22:54:06;12.75;;;4.95;;
45388;SDS011;31127;52.078;4.370;2023-09-30T22:59:03;17.85;;;5.38;;
45388;SDS011;31127;52.078;4.370;2023-09-30T23:04:00;16.83;;;4.90;;
45388;SDS011;31127;52.078;4.370;2023-09-30T23:08:56;21.27;;;5.93;;
45388;SDS011;31127;52.078;4.370;2023-09-30T23:14:11;16.55;;;5.05;;
45388;SDS011;31127;52.078;4.370;2023-09-30T23:19:27;17.75;;;4.90;;
45388;SDS011;31127;52.078;4.370;2023-09-30T23:24:23;16.50;;;4.85;;
45388;SDS011;31127;52.078;4.370;2023-09-30T23:29:39;15.38;;;6.57;;
45388;SDS011;31127;52.078;4.370;2023-09-30T23:34:35;15.63;;;5.15;;
45388;SDS011;31127;52.078;4.370;2023-09-30T23:39:37;16.57;;;3.80;;
45388;SDS011;31127;52.078;4.370;2023-09-30T23:44:36;13.13;;;4.47;;
45388;SDS011;31127;52.078;4.370;2023-09-30T23:49:32;16.10;;;4.03;;
45388;SDS011;31127;52.078;4.370;2023-09-30T23:54:28;12.95;;;4.13;;
45388;SDS011;31127;52.078;4.370;2023-09-30T23:59:24;15.98;;;4.97;;
